sensor_id;sensor_type;location;lat;lon;timestamp;temperature;humidity
52799;DHT22;38667;42.872;74.622;2023-06-26T00:02:11;17.70;64.50
52799;DHT22;38667;42.872;74.622;2023-06-26T00:04:38;17.80;61.30
52799;DHT22;38667;42.872;74.622;2023-06-26T00:07:04;18.00;58.80
52799;DHT22;38667;42.872;74.622;2023-06-26T00:09:32;18.20;58.10
52799;DHT22;38667;42.872;74.622;2023-06-26T00:11:58;18.40;57.90
52799;DHT22;38667;42.872;74.622;2023-06-26T00:14:25;18.50;60.40
52799;DHT22;38667;42.872;74.622;2023-06-26T00:16:51;18.30;60.80
52799;DHT22;38667;42.872;74.622;2023-06-26T00:19:18;18.30;61.10
52799;DHT22;38667;42.872;74.622;2023-06-26T00:21:44;18.30;61.80
52799;DHT22;38667;42.872;74.622;2023-06-26T00:24:10;18.30;61.60
52799;DHT22;38667;42.872;74.622;2023-06-26T00:26:38;18.30;60.90
52799;DHT22;38667;42.872;74.622;2023-06-26T00:29:05;18.40;59.50
52799;DHT22;38667;42.872;74.622;2023-06-26T00:31:31;18.50;58.20
52799;DHT22;38667;42.872;74.622;2023-06-26T00:33:57;18.60;59.30
52799;DHT22;38667;42.872;74.622;2023-06-26T00:36:24;18.60;59.50
52799;DHT22;38667;42.872;74.622;2023-06-26T00:38:50;18.60;59.30
52799;DHT22;38667;42.872;74.622;2023-06-26T00:41:16;18.60;60.70
52799;DHT22;38667;42.872;74.622;2023-06-26T00:43:44;18.70;59.10
52799;DHT22;38667;42.872;74.622;2023-06-26T00:46:12;18.70;60.40
52799;DHT22;38667;42.872;74.622;2023-06-26T00:48:40;18.70;59.40
52799;DHT22;38667;42.872;74.622;2023-06-26T00:51:07;18.70;60.50
52799;DHT22;38667;42.872;74.622;2023-06-26T00:53:34;18.70;61.90
52799;DHT22;38667;42.872;74.622;2023-06-26T00:56:01;18.60;61.60
52799;DHT22;38667;42.872;74.622;2023-06-26T00:58:28;18.70;62.80
52799;DHT22;38667;42.872;74.622;2023-06-26T01:00:56;18.70;61.40
52799;DHT22;38667;42.872;74.622;2023-06-26T01:03:24;18.70;62.00
52799;DHT22;38667;42.872;74.622;2023-06-26T01:05:52;18.70;61.20
52799;DHT22;38667;42.872;74.622;2023-06-26T01:08:20;18.80;60.20
52799;DHT22;38667;42.872;74.622;2023-06-26T01:10:46;18.90;60.00
52799;DHT22;38667;42.872;74.622;2023-06-26T01:13:14;19.00;61.10
52799;DHT22;38667;42.872;74.622;2023-06-26T01:15:40;19.00;60.30
52799;DHT22;38667;42.872;74.622;2023-06-26T01:18:09;19.10;59.80
52799;DHT22;38667;42.872;74.622;2023-06-26T01:20:36;19.10;59.90
52799;DHT22;38667;42.872;74.622;2023-06-26T01:25:58;19.20;60.20
52799;DHT22;38667;42.872;74.622;2023-06-26T01:28:29;19.30;59.70
52799;DHT22;38667;42.872;74.622;2023-06-26T01:30:56;19.30;60.60
52799;DHT22;38667;42.872;74.622;2023-06-26T01:33:22;19.40;59.60
52799;DHT22;38667;42.872;74.622;2023-06-26T01:35:49;19.40;60.00
52799;DHT22;38667;42.872;74.622;2023-06-26T01:38:17;19.50;59.40
52799;DHT22;38667;42.872;74.622;2023-06-26T01:40:44;19.50;59.50
52799;DHT22;38667;42.872;74.622;2023-06-26T01:43:17;19.60;59.20
52799;DHT22;38667;42.872;74.622;2023-06-26T01:45:48;19.70;58.60
52799;DHT22;38667;42.872;74.622;2023-06-26T01:48:17;19.80;58.40
52799;DHT22;38667;42.872;74.622;2023-06-26T01:50:50;19.90;58.00
52799;DHT22;38667;42.872;74.622;2023-06-26T01:53:18;19.90;57.30
52799;DHT22;38667;42.872;74.622;2023-06-26T01:55:48;20.00;56.50
52799;DHT22;38667;42.872;74.622;2023-06-26T01:58:17;20.00;56.60
52799;DHT22;38667;42.872;74.622;2023-06-26T02:03:22;20.20;55.90
52799;DHT22;38667;42.872;74.622;2023-06-26T02:07:40;20.30;54.30
52799;DHT22;38667;42.872;74.622;2023-06-26T02:10:07;20.40;54.60
52799;DHT22;38667;42.872;74.622;2023-06-26T02:12:34;20.50;54.20
52799;DHT22;38667;42.872;74.622;2023-06-26T02:15:01;20.60;53.90
52799;DHT22;38667;42.872;74.622;2023-06-26T02:17:27;20.70;53.60
52799;DHT22;38667;42.872;74.622;2023-06-26T02:19:53;20.80;53.50
52799;DHT22;38667;42.872;74.622;2023-06-26T02:22:20;20.90;53.60
52799;DHT22;38667;42.872;74.622;2023-06-26T02:24:48;21.00;53.40
52799;DHT22;38667;42.872;74.622;2023-06-26T02:27:14;21.10;53.00
52799;DHT22;38667;42.872;74.622;2023-06-26T02:29:41;21.20;52.50
52799;DHT22;38667;42.872;74.622;2023-06-26T02:32:07;21.20;52.50
52799;DHT22;38667;42.872;74.622;2023-06-26T02:34:34;21.30;53.00
52799;DHT22;38667;42.872;74.622;2023-06-26T02:37:00;21.40;53.00
52799;DHT22;38667;42.872;74.622;2023-06-26T02:39:27;21.40;51.40
52799;DHT22;38667;42.872;74.622;2023-06-26T02:41:55;21.50;52.70
52799;DHT22;38667;42.872;74.622;2023-06-26T02:44:21;21.60;52.40
52799;DHT22;38667;42.872;74.622;2023-06-26T02:46:47;21.60;51.90
52799;DHT22;38667;42.872;74.622;2023-06-26T02:49:14;21.70;52.10
52799;DHT22;38667;42.872;74.622;2023-06-26T02:51:40;21.80;52.00
52799;DHT22;38667;42.872;74.622;2023-06-26T02:54:06;21.90;51.90
52799;DHT22;38667;42.872;74.622;2023-06-26T02:56:33;22.00;52.00
52799;DHT22;38667;42.872;74.622;2023-06-26T02:59:01;22.10;51.90
52799;DHT22;38667;42.872;74.622;2023-06-26T03:01:27;22.20;51.80
52799;DHT22;38667;42.872;74.622;2023-06-26T03:03:54;22.30;51.70
52799;DHT22;38667;42.872;74.622;2023-06-26T03:06:20;22.50;52.20
52799;DHT22;38667;42.872;74.622;2023-06-26T03:08:46;22.90;51.10
52799;DHT22;38667;42.872;74.622;2023-06-26T03:11:13;23.10;50.90
52799;DHT22;38667;42.872;74.622;2023-06-26T03:13:39;23.40;49.80
52799;DHT22;38667;42.872;74.622;2023-06-26T03:16:07;23.40;47.60
52799;DHT22;38667;42.872;74.622;2023-06-26T03:18:33;23.60;49.90
52799;DHT22;38667;42.872;74.622;2023-06-26T03:21:00;23.70;48.40
52799;DHT22;38667;42.872;74.622;2023-06-26T03:23:26;23.80;45.20
52799;DHT22;38667;42.872;74.622;2023-06-26T03:25:52;24.00;44.00
52799;DHT22;38667;42.872;74.622;2023-06-26T03:28:19;24.10;44.40
52799;DHT22;38667;42.872;74.622;2023-06-26T03:30:45;24.10;46.00
52799;DHT22;38667;42.872;74.622;2023-06-26T03:33:13;24.30;45.10
52799;DHT22;38667;42.872;74.622;2023-06-26T03:35:39;24.40;45.10
52799;DHT22;38667;42.872;74.622;2023-06-26T03:38:06;24.50;44.40
52799;DHT22;38667;42.872;74.622;2023-06-26T03:40:32;24.60;42.60
52799;DHT22;38667;42.872;74.622;2023-06-26T03:42:58;24.70;41.30
52799;DHT22;38667;42.872;74.622;2023-06-26T03:45:24;24.60;42.00
52799;DHT22;38667;42.872;74.622;2023-06-26T03:47:51;24.50;42.20
52799;DHT22;38667;42.872;74.622;2023-06-26T03:50:19;24.40;42.10
52799;DHT22;38667;42.872;74.622;2023-06-26T03:52:45;24.50;41.80
52799;DHT22;38667;42.872;74.622;2023-06-26T03:55:12;24.70;40.20
52799;DHT22;38667;42.872;74.622;2023-06-26T03:57:38;25.00;39.30
52799;DHT22;38667;42.872;74.622;2023-06-26T04:00:06;24.80;40.20
52799;DHT22;38667;42.872;74.622;2023-06-26T04:02:32;24.80;40.90
52799;DHT22;38667;42.872;74.622;2023-06-26T04:04:59;24.90;40.80
52799;DHT22;38667;42.872;74.622;2023-06-26T04:07:26;25.00;40.90
52799;DHT22;38667;42.872;74.622;2023-06-26T04:09:53;25.20;41.30
52799;DHT22;38667;42.872;74.622;2023-06-26T04:12:19;25.40;40.50
52799;DHT22;38667;42.872;74.622;2023-06-26T04:14:46;25.50;39.50
52799;DHT22;38667;42.872;74.622;2023-06-26T04:17:12;25.50;39.50
52799;DHT22;38667;42.872;74.622;2023-06-26T04:19:38;25.50;39.60
52799;DHT22;38667;42.872;74.622;2023-06-26T04:22:05;25.50;38.60
52799;DHT22;38667;42.872;74.622;2023-06-26T04:24:33;25.50;36.30
52799;DHT22;38667;42.872;74.622;2023-06-26T04:27:00;25.40;37.40
52799;DHT22;38667;42.872;74.622;2023-06-26T04:29:27;25.20;38.50
52799;DHT22;38667;42.872;74.622;2023-06-26T04:31:53;25.10;37.30
52799;DHT22;38667;42.872;74.622;2023-06-26T04:34:20;25.10;37.50
52799;DHT22;38667;42.872;74.622;2023-06-26T04:36:46;25.00;37.30
52799;DHT22;38667;42.872;74.622;2023-06-26T04:39:12;25.00;37.60
52799;DHT22;38667;42.872;74.622;2023-06-26T04:41:40;25.20;37.80
52799;DHT22;38667;42.872;74.622;2023-06-26T04:44:07;25.40;37.70
52799;DHT22;38667;42.872;74.622;2023-06-26T04:46:33;25.50;38.40
52799;DHT22;38667;42.872;74.622;2023-06-26T04:48:59;25.80;37.60
52799;DHT22;38667;42.872;74.622;2023-06-26T04:51:26;25.90;37.10
52799;DHT22;38667;42.872;74.622;2023-06-26T04:53:52;25.90;38.00
52799;DHT22;38667;42.872;74.622;2023-06-26T04:56:19;26.00;39.10
52799;DHT22;38667;42.872;74.622;2023-06-26T04:58:46;26.30;39.20
52799;DHT22;38667;42.872;74.622;2023-06-26T05:01:13;26.60;38.60
52799;DHT22;38667;42.872;74.622;2023-06-26T05:03:39;26.70;35.60
52799;DHT22;38667;42.872;74.622;2023-06-26T05:06:06;26.90;35.30
52799;DHT22;38667;42.872;74.622;2023-06-26T05:08:32;26.90;33.60
52799;DHT22;38667;42.872;74.622;2023-06-26T05:10:58;26.80;35.00
52799;DHT22;38667;42.872;74.622;2023-06-26T05:13:25;26.60;35.90
52799;DHT22;38667;42.872;74.622;2023-06-26T05:15:53;26.80;35.90
52799;DHT22;38667;42.872;74.622;2023-06-26T05:18:19;26.90;34.10
52799;DHT22;38667;42.872;74.622;2023-06-26T05:20:47;27.00;35.70
52799;DHT22;38667;42.872;74.622;2023-06-26T05:23:13;27.00;34.50
52799;DHT22;38667;42.872;74.622;2023-06-26T05:25:42;27.00;33.50
52799;DHT22;38667;42.872;74.622;2023-06-26T05:28:09;27.00;35.20
52799;DHT22;38667;42.872;74.622;2023-06-26T05:30:36;26.90;35.20
52799;DHT22;38667;42.872;74.622;2023-06-26T05:33:06;27.00;36.10
52799;DHT22;38667;42.872;74.622;2023-06-26T05:35:34;27.20;37.40
52799;DHT22;38667;42.872;74.622;2023-06-26T05:38:02;27.50;35.50
52799;DHT22;38667;42.872;74.622;2023-06-26T05:40:29;27.70;34.00
52799;DHT22;38667;42.872;74.622;2023-06-26T05:42:55;27.90;34.60
52799;DHT22;38667;42.872;74.622;2023-06-26T05:45:22;28.00;34.40
52799;DHT22;38667;42.872;74.622;2023-06-26T05:47:48;28.20;34.10
52799;DHT22;38667;42.872;74.622;2023-06-26T05:50:18;28.60;34.20
52799;DHT22;38667;42.872;74.622;2023-06-26T05:52:45;29.00;33.60
52799;DHT22;38667;42.872;74.622;2023-06-26T05:55:13;29.50;32.40
52799;DHT22;38667;42.872;74.622;2023-06-26T05:57:41;29.70;32.30
52799;DHT22;38667;42.872;74.622;2023-06-26T06:00:08;29.70;31.60
52799;DHT22;38667;42.872;74.622;2023-06-26T06:02:34;29.40;31.80
52799;DHT22;38667;42.872;74.622;2023-06-26T06:05:01;29.30;31.80
52799;DHT22;38667;42.872;74.622;2023-06-26T06:07:28;29.30;31.80
52799;DHT22;38667;42.872;74.622;2023-06-26T06:09:55;29.30;32.00
52799;DHT22;38667;42.872;74.622;2023-06-26T06:12:21;29.20;32.00
52799;DHT22;38667;42.872;74.622;2023-06-26T06:14:48;29.00;32.10
52799;DHT22;38667;42.872;74.622;2023-06-26T06:17:14;28.90;31.60
52799;DHT22;38667;42.872;74.622;2023-06-26T06:19:40;28.60;32.10
52799;DHT22;38667;42.872;74.622;2023-06-26T06:22:07;28.60;32.50
52799;DHT22;38667;42.872;74.622;2023-06-26T06:24:34;28.60;31.00
52799;DHT22;38667;42.872;74.622;2023-06-26T06:27:01;28.60;33.30
52799;DHT22;38667;42.872;74.622;2023-06-26T06:29:27;28.10;34.10
52799;DHT22;38667;42.872;74.622;2023-06-26T06:31:53;27.50;34.60
52799;DHT22;38667;42.872;74.622;2023-06-26T06:34:20;26.90;34.80
52799;DHT22;38667;42.872;74.622;2023-06-26T06:36:46;26.70;34.00
52799;DHT22;38667;42.872;74.622;2023-06-26T06:39:13;26.50;34.20
52799;DHT22;38667;42.872;74.622;2023-06-26T06:41:40;26.40;34.20
52799;DHT22;38667;42.872;74.622;2023-06-26T06:44:07;26.40;34.90
52799;DHT22;38667;42.872;74.622;2023-06-26T06:46:33;26.50;33.90
52799;DHT22;38667;42.872;74.622;2023-06-26T06:49:00;26.60;33.90
52799;DHT22;38667;42.872;74.622;2023-06-26T06:51:26;26.80;34.10
52799;DHT22;38667;42.872;74.622;2023-06-26T06:53:52;26.80;33.70
52799;DHT22;38667;42.872;74.622;2023-06-26T06:56:18;26.70;33.80
52799;DHT22;38667;42.872;74.622;2023-06-26T06:58:46;26.60;34.50
52799;DHT22;38667;42.872;74.622;2023-06-26T07:01:13;26.90;35.10
52799;DHT22;38667;42.872;74.622;2023-06-26T07:03:39;27.40;34.90
52799;DHT22;38667;42.872;74.622;2023-06-26T07:06:06;27.80;34.50
52799;DHT22;38667;42.872;74.622;2023-06-26T07:08:32;28.00;34.20
52799;DHT22;38667;42.872;74.622;2023-06-26T07:10:58;27.90;33.60
52799;DHT22;38667;42.872;74.622;2023-06-26T07:13:25;27.90;34.00
52799;DHT22;38667;42.872;74.622;2023-06-26T07:15:53;27.70;34.20
52799;DHT22;38667;42.872;74.622;2023-06-26T07:18:19;27.30;34.80
52799;DHT22;38667;42.872;74.622;2023-06-26T07:20:45;27.50;33.90
52799;DHT22;38667;42.872;74.622;2023-06-26T07:23:12;28.10;32.40
52799;DHT22;38667;42.872;74.622;2023-06-26T07:25:38;28.40;32.60
52799;DHT22;38667;42.872;74.622;2023-06-26T07:28:10;28.30;33.20
52799;DHT22;38667;42.872;74.622;2023-06-26T07:30:36;28.20;32.70
52799;DHT22;38667;42.872;74.622;2023-06-26T07:33:04;27.60;34.20
52799;DHT22;38667;42.872;74.622;2023-06-26T07:35:31;27.10;33.10
52799;DHT22;38667;42.872;74.622;2023-06-26T07:37:57;27.00;32.80
52799;DHT22;38667;42.872;74.622;2023-06-26T07:40:24;26.90;32.70
52799;DHT22;38667;42.872;74.622;2023-06-26T07:42:50;26.70;32.80
52799;DHT22;38667;42.872;74.622;2023-06-26T07:45:16;26.70;32.80
52799;DHT22;38667;42.872;74.622;2023-06-26T07:47:43;26.90;32.40
52799;DHT22;38667;42.872;74.622;2023-06-26T07:50:11;26.90;32.40
52799;DHT22;38667;42.872;74.622;2023-06-26T07:52:38;26.80;33.10
52799;DHT22;38667;42.872;74.622;2023-06-26T07:55:05;26.70;33.10
52799;DHT22;38667;42.872;74.622;2023-06-26T07:57:31;27.00;32.60
52799;DHT22;38667;42.872;74.622;2023-06-26T07:59:57;27.30;32.80
52799;DHT22;38667;42.872;74.622;2023-06-26T08:02:24;26.90;32.70
52799;DHT22;38667;42.872;74.622;2023-06-26T08:04:53;26.70;33.10
52799;DHT22;38667;42.872;74.622;2023-06-26T08:07:21;27.20;32.80
52799;DHT22;38667;42.872;74.622;2023-06-26T08:09:47;27.20;32.90
52799;DHT22;38667;42.872;74.622;2023-06-26T08:12:13;27.20;32.30
52799;DHT22;38667;42.872;74.622;2023-06-26T08:14:40;27.20;32.70
52799;DHT22;38667;42.872;74.622;2023-06-26T08:17:06;27.60;31.80
52799;DHT22;38667;42.872;74.622;2023-06-26T08:19:32;27.40;31.90
52799;DHT22;38667;42.872;74.622;2023-06-26T08:21:59;27.10;32.70
52799;DHT22;38667;42.872;74.622;2023-06-26T08:24:27;27.20;32.40
52799;DHT22;38667;42.872;74.622;2023-06-26T08:26:53;27.20;32.50
52799;DHT22;38667;42.872;74.622;2023-06-26T08:29:19;27.10;32.40
52799;DHT22;38667;42.872;74.622;2023-06-26T08:31:45;27.50;33.20
52799;DHT22;38667;42.872;74.622;2023-06-26T08:34:12;28.30;30.70
52799;DHT22;38667;42.872;74.622;2023-06-26T08:36:38;28.10;31.30
52799;DHT22;38667;42.872;74.622;2023-06-26T08:39:04;27.70;31.90
52799;DHT22;38667;42.872;74.622;2023-06-26T08:41:32;27.70;31.80
52799;DHT22;38667;42.872;74.622;2023-06-26T08:43:59;27.60;31.70
52799;DHT22;38667;42.872;74.622;2023-06-26T08:46:25;27.70;31.00
52799;DHT22;38667;42.872;74.622;2023-06-26T08:48:55;27.40;32.00
52799;DHT22;38667;42.872;74.622;2023-06-26T08:51:24;27.70;30.70
52799;DHT22;38667;42.872;74.622;2023-06-26T08:53:55;27.60;31.20
52799;DHT22;38667;42.872;74.622;2023-06-26T08:56:22;27.50;32.00
52799;DHT22;38667;42.872;74.622;2023-06-26T08:58:51;28.00;30.90
52799;DHT22;38667;42.872;74.622;2023-06-26T09:01:18;27.80;31.30
52799;DHT22;38667;42.872;74.622;2023-06-26T09:03:44;27.90;32.50
52799;DHT22;38667;42.872;74.622;2023-06-26T09:06:11;28.00;31.00
52799;DHT22;38667;42.872;74.622;2023-06-26T09:08:37;28.10;30.80
52799;DHT22;38667;42.872;74.622;2023-06-26T09:11:04;27.90;30.80
52799;DHT22;38667;42.872;74.622;2023-06-26T09:13:30;27.50;31.40
52799;DHT22;38667;42.872;74.622;2023-06-26T09:15:58;27.30;32.70
52799;DHT22;38667;42.872;74.622;2023-06-26T09:18:25;27.40;32.00
52799;DHT22;38667;42.872;74.622;2023-06-26T09:20:51;28.10;31.90
52799;DHT22;38667;42.872;74.622;2023-06-26T09:23:18;28.80;30.50
52799;DHT22;38667;42.872;74.622;2023-06-26T09:25:47;29.10;30.00
52799;DHT22;38667;42.872;74.622;2023-06-26T09:28:13;28.70;29.90
52799;DHT22;38667;42.872;74.622;2023-06-26T09:30:40;28.50;30.20
52799;DHT22;38667;42.872;74.622;2023-06-26T09:33:19;27.80;31.80
52799;DHT22;38667;42.872;74.622;2023-06-26T09:35:45;27.80;31.10
52799;DHT22;38667;42.872;74.622;2023-06-26T09:38:12;28.00;31.70
52799;DHT22;38667;42.872;74.622;2023-06-26T09:40:38;28.20;31.10
52799;DHT22;38667;42.872;74.622;2023-06-26T09:43:05;27.90;31.10
52799;DHT22;38667;42.872;74.622;2023-06-26T09:45:32;27.70;32.90
52799;DHT22;38667;42.872;74.622;2023-06-26T09:48:00;27.70;31.60
52799;DHT22;38667;42.872;74.622;2023-06-26T09:50:28;27.70;31.90
52799;DHT22;38667;42.872;74.622;2023-06-26T09:52:55;27.60;31.70
52799;DHT22;38667;42.872;74.622;2023-06-26T09:55:22;27.70;31.40
52799;DHT22;38667;42.872;74.622;2023-06-26T09:57:49;27.60;32.70
52799;DHT22;38667;42.872;74.622;2023-06-26T10:00:15;27.50;31.00
52799;DHT22;38667;42.872;74.622;2023-06-26T10:02:42;27.70;31.60
52799;DHT22;38667;42.872;74.622;2023-06-26T10:05:08;27.90;31.40
52799;DHT22;38667;42.872;74.622;2023-06-26T10:07:37;27.60;31.70
52799;DHT22;38667;42.872;74.622;2023-06-26T10:10:06;27.50;32.60
52799;DHT22;38667;42.872;74.622;2023-06-26T10:12:33;27.30;32.60
52799;DHT22;38667;42.872;74.622;2023-06-26T10:14:59;27.20;33.10
52799;DHT22;38667;42.872;74.622;2023-06-26T10:17:30;27.10;33.00
52799;DHT22;38667;42.872;74.622;2023-06-26T10:19:58;27.10;32.20
52799;DHT22;38667;42.872;74.622;2023-06-26T10:22:29;27.20;32.60
52799;DHT22;38667;42.872;74.622;2023-06-26T10:24:59;27.10;32.40
52799;DHT22;38667;42.872;74.622;2023-06-26T10:27:27;27.10;32.20
52799;DHT22;38667;42.872;74.622;2023-06-26T10:29:55;27.00;32.10
52799;DHT22;38667;42.872;74.622;2023-06-26T10:32:24;26.90;32.20
52799;DHT22;38667;42.872;74.622;2023-06-26T10:34:52;26.90;32.30
52799;DHT22;38667;42.872;74.622;2023-06-26T10:37:18;27.00;32.10
52799;DHT22;38667;42.872;74.622;2023-06-26T10:39:49;26.90;32.70
52799;DHT22;38667;42.872;74.622;2023-06-26T10:42:17;26.90;32.10
52799;DHT22;38667;42.872;74.622;2023-06-26T10:44:45;27.10;32.50
52799;DHT22;38667;42.872;74.622;2023-06-26T10:47:19;27.40;32.00
52799;DHT22;38667;42.872;74.622;2023-06-26T10:49:54;27.20;32.10
52799;DHT22;38667;42.872;74.622;2023-06-26T10:52:21;27.10;32.20
52799;DHT22;38667;42.872;74.622;2023-06-26T10:54:47;27.00;33.00
52799;DHT22;38667;42.872;74.622;2023-06-26T10:57:25;27.10;33.60
52799;DHT22;38667;42.872;74.622;2023-06-26T11:00:08;27.30;32.70
52799;DHT22;38667;42.872;74.622;2023-06-26T11:02:48;27.10;32.50
52799;DHT22;38667;42.872;74.622;2023-06-26T11:05:24;27.10;32.60
52799;DHT22;38667;42.872;74.622;2023-06-26T11:08:04;27.00;32.80
52799;DHT22;38667;42.872;74.622;2023-06-26T11:10:40;27.00;32.60
52799;DHT22;38667;42.872;74.622;2023-06-26T11:13:17;27.30;33.00
52799;DHT22;38667;42.872;74.622;2023-06-26T11:15:44;27.80;31.50
52799;DHT22;38667;42.872;74.622;2023-06-26T11:18:10;27.80;33.50
52799;DHT22;38667;42.872;74.622;2023-06-26T11:20:37;27.70;31.80
52799;DHT22;38667;42.872;74.622;2023-06-26T11:23:04;27.20;33.30
52799;DHT22;38667;42.872;74.622;2023-06-26T11:25:30;27.10;33.50
52799;DHT22;38667;42.872;74.622;2023-06-26T11:28:00;27.20;33.30
52799;DHT22;38667;42.872;74.622;2023-06-26T11:30:27;27.10;33.00
52799;DHT22;38667;42.872;74.622;2023-06-26T11:33:03;27.10;33.20
52799;DHT22;38667;42.872;74.622;2023-06-26T11:35:29;27.00;33.30
52799;DHT22;38667;42.872;74.622;2023-06-26T11:37:56;26.80;33.10
52799;DHT22;38667;42.872;74.622;2023-06-26T11:40:23;26.90;33.10
52799;DHT22;38667;42.872;74.622;2023-06-26T11:42:49;27.00;33.30
52799;DHT22;38667;42.872;74.622;2023-06-26T11:45:16;27.00;33.50
52799;DHT22;38667;42.872;74.622;2023-06-26T11:47:44;27.00;33.30
52799;DHT22;38667;42.872;74.622;2023-06-26T11:50:15;26.90;33.00
52799;DHT22;38667;42.872;74.622;2023-06-26T11:52:42;26.90;32.50
52799;DHT22;38667;42.872;74.622;2023-06-26T11:55:09;27.00;33.10
52799;DHT22;38667;42.872;74.622;2023-06-26T11:57:35;27.00;33.60
52799;DHT22;38667;42.872;74.622;2023-06-26T12:00:11;27.00;33.30
52799;DHT22;38667;42.872;74.622;2023-06-26T12:02:38;27.00;33.50
52799;DHT22;38667;42.872;74.622;2023-06-26T12:05:06;26.90;32.80
52799;DHT22;38667;42.872;74.622;2023-06-26T12:07:33;27.20;33.00
52799;DHT22;38667;42.872;74.622;2023-06-26T12:10:00;27.80;32.10
52799;DHT22;38667;42.872;74.622;2023-06-26T12:12:27;28.00;31.80
52799;DHT22;38667;42.872;74.622;2023-06-26T12:14:53;27.60;32.10
52799;DHT22;38667;42.872;74.622;2023-06-26T12:17:23;27.10;32.80
52799;DHT22;38667;42.872;74.622;2023-06-26T12:19:49;26.80;33.00
52799;DHT22;38667;42.872;74.622;2023-06-26T12:22:18;26.60;33.50
52799;DHT22;38667;42.872;74.622;2023-06-26T12:24:45;26.70;33.10
52799;DHT22;38667;42.872;74.622;2023-06-26T12:27:12;26.60;33.20
52799;DHT22;38667;42.872;74.622;2023-06-26T12:29:40;26.60;33.70
52799;DHT22;38667;42.872;74.622;2023-06-26T12:32:09;26.60;33.10
52799;DHT22;38667;42.872;74.622;2023-06-26T12:34:37;27.00;33.00
52799;DHT22;38667;42.872;74.622;2023-06-26T12:37:05;27.20;32.60
52799;DHT22;38667;42.872;74.622;2023-06-26T12:39:47;27.20;32.80
52799;DHT22;38667;42.872;74.622;2023-06-26T12:42:15;27.10;32.70
52799;DHT22;38667;42.872;74.622;2023-06-26T12:44:41;27.10;32.90
52799;DHT22;38667;42.872;74.622;2023-06-26T12:47:08;26.90;32.90
52799;DHT22;38667;42.872;74.622;2023-06-26T12:49:35;26.70;33.00
52799;DHT22;38667;42.872;74.622;2023-06-26T12:52:03;26.60;33.10
52799;DHT22;38667;42.872;74.622;2023-06-26T12:54:30;26.60;33.10
52799;DHT22;38667;42.872;74.622;2023-06-26T12:56:58;26.50;33.30
52799;DHT22;38667;42.872;74.622;2023-06-26T12:59:24;26.60;33.50
52799;DHT22;38667;42.872;74.622;2023-06-26T13:01:50;26.60;33.30
52799;DHT22;38667;42.872;74.622;2023-06-26T13:04:17;26.50;33.60
52799;DHT22;38667;42.872;74.622;2023-06-26T13:06:43;26.50;33.50
52799;DHT22;38667;42.872;74.622;2023-06-26T13:09:10;26.50;34.00
52799;DHT22;38667;42.872;74.622;2023-06-26T13:11:37;26.50;33.90
52799;DHT22;38667;42.872;74.622;2023-06-26T13:14:05;26.50;34.10
52799;DHT22;38667;42.872;74.622;2023-06-26T13:16:31;26.40;34.40
52799;DHT22;38667;42.872;74.622;2023-06-26T13:18:59;26.40;34.40
52799;DHT22;38667;42.872;74.622;2023-06-26T13:21:26;26.40;34.80
52799;DHT22;38667;42.872;74.622;2023-06-26T13:23:52;26.40;34.40
52799;DHT22;38667;42.872;74.622;2023-06-26T13:26:19;26.40;34.40
52799;DHT22;38667;42.872;74.622;2023-06-26T13:28:46;26.40;34.50
52799;DHT22;38667;42.872;74.622;2023-06-26T13:31:14;26.40;34.40
52799;DHT22;38667;42.872;74.622;2023-06-26T13:33:40;26.30;34.50
52799;DHT22;38667;42.872;74.622;2023-06-26T13:36:07;26.30;34.50
52799;DHT22;38667;42.872;74.622;2023-06-26T13:38:33;26.40;35.00
52799;DHT22;38667;42.872;74.622;2023-06-26T13:41:00;26.40;34.50
52799;DHT22;38667;42.872;74.622;2023-06-26T13:43:27;26.40;34.50
52799;DHT22;38667;42.872;74.622;2023-06-26T13:45:54;26.30;34.50
52799;DHT22;38667;42.872;74.622;2023-06-26T13:48:22;26.40;34.40
52799;DHT22;38667;42.872;74.622;2023-06-26T13:50:48;26.30;34.30
52799;DHT22;38667;42.872;74.622;2023-06-26T13:53:15;26.30;34.40
52799;DHT22;38667;42.872;74.622;2023-06-26T13:55:41;26.30;34.30
52799;DHT22;38667;42.872;74.622;2023-06-26T13:58:07;26.30;34.60
52799;DHT22;38667;42.872;74.622;2023-06-26T14:00:35;26.30;34.20
52799;DHT22;38667;42.872;74.622;2023-06-26T14:03:01;26.30;34.30
52799;DHT22;38667;42.872;74.622;2023-06-26T14:05:29;26.30;34.20
52799;DHT22;38667;42.872;74.622;2023-06-26T14:07:56;26.30;34.30
52799;DHT22;38667;42.872;74.622;2023-06-26T14:10:23;26.30;34.40
52799;DHT22;38667;42.872;74.622;2023-06-26T14:12:49;26.30;34.50
52799;DHT22;38667;42.872;74.622;2023-06-26T14:15:16;26.30;34.60
52799;DHT22;38667;42.872;74.622;2023-06-26T14:17:42;26.30;34.80
52799;DHT22;38667;42.872;74.622;2023-06-26T14:20:10;26.30;34.70
52799;DHT22;38667;42.872;74.622;2023-06-26T14:22:38;26.20;34.70
52799;DHT22;38667;42.872;74.622;2023-06-26T14:25:05;26.20;34.70
52799;DHT22;38667;42.872;74.622;2023-06-26T14:27:31;26.20;34.90
52799;DHT22;38667;42.872;74.622;2023-06-26T14:29:57;26.20;35.10
52799;DHT22;38667;42.872;74.622;2023-06-26T14:32:24;26.10;35.70
52799;DHT22;38667;42.872;74.622;2023-06-26T14:34:50;26.00;35.20
52799;DHT22;38667;42.872;74.622;2023-06-26T14:37:16;26.00;35.20
52799;DHT22;38667;42.872;74.622;2023-06-26T14:39:44;26.00;35.30
52799;DHT22;38667;42.872;74.622;2023-06-26T14:42:11;26.00;35.30
52799;DHT22;38667;42.872;74.622;2023-06-26T14:44:37;26.00;35.50
52799;DHT22;38667;42.872;74.622;2023-06-26T14:47:04;26.00;35.60
52799;DHT22;38667;42.872;74.622;2023-06-26T14:49:30;26.00;35.60
52799;DHT22;38667;42.872;74.622;2023-06-26T14:51:57;26.00;35.80
52799;DHT22;38667;42.872;74.622;2023-06-26T14:54:23;26.00;35.90
52799;DHT22;38667;42.872;74.622;2023-06-26T14:56:51;25.90;35.80
52799;DHT22;38667;42.872;74.622;2023-06-26T14:59:17;25.90;36.20
52799;DHT22;38667;42.872;74.622;2023-06-26T15:01:43;25.90;36.80
52799;DHT22;38667;42.872;74.622;2023-06-26T15:04:10;25.90;36.80
52799;DHT22;38667;42.872;74.622;2023-06-26T15:06:36;25.80;37.60
52799;DHT22;38667;42.872;74.622;2023-06-26T15:09:02;25.80;38.30
52799;DHT22;38667;42.872;74.622;2023-06-26T15:11:29;25.80;38.30
52799;DHT22;38667;42.872;74.622;2023-06-26T15:13:57;25.70;39.20
52799;DHT22;38667;42.872;74.622;2023-06-26T15:16:23;25.70;39.60
52799;DHT22;38667;42.872;74.622;2023-06-26T15:18:49;25.60;39.60
52799;DHT22;38667;42.872;74.622;2023-06-26T15:21:16;25.60;38.70
52799;DHT22;38667;42.872;74.622;2023-06-26T15:23:42;25.60;38.70